createdAt,value
2018-07-14T00:00:16.327Z,1010.14
2018-07-14T00:00:56.788Z,1010.15
2018-07-14T00:01:37.113Z,1010.14
2018-07-14T00:02:17.517Z,1010.14
2018-07-14T00:02:57.917Z,1010.14
2018-07-14T00:03:38.355Z,1010.12
2018-07-14T00:04:18.742Z,1010.13
2018-07-14T00:04:59.161Z,1010.14
2018-07-14T00:05:39.605Z,1010.12
2018-07-14T00:06:19.961Z,1010.11
2018-07-14T00:07:00.345Z,1010.1
2018-07-14T00:07:40.737Z,1010.11
2018-07-14T00:08:21.190Z,1010.12
2018-07-14T00:09:01.567Z,1010.11
2018-07-14T00:09:41.943Z,1010.07
2018-07-14T00:10:22.371Z,1010.12
2018-07-14T00:11:02.760Z,1010.08
2018-07-14T00:11:43.149Z,1010.09
2018-07-14T00:12:23.617Z,1010.09
2018-07-14T00:13:03.972Z,1010.09
2018-07-14T00:13:44.377Z,1010.06
2018-07-14T00:14:24.769Z,1010.09
2018-07-14T00:15:05.218Z,1010.09
2018-07-14T00:15:45.597Z,1010.06
2018-07-14T00:16:25.992Z,1010.06
2018-07-14T00:17:06.441Z,1010.05
2018-07-14T00:17:46.790Z,1010.02
2018-07-14T00:18:27.180Z,1009.99
2018-07-14T00:19:07.581Z,1010.04
2018-07-14T00:19:48.014Z,1010.02
2018-07-14T00:20:28.442Z,1010
2018-07-14T00:21:08.792Z,1009.98
2018-07-14T00:21:49.200Z,1010.03
2018-07-14T00:22:29.573Z,1010.06
2018-07-14T00:23:09.982Z,1010.07
2018-07-14T00:23:50.388Z,1010.07
2018-07-14T00:24:30.831Z,1010.05
2018-07-14T00:25:11.162Z,1010.08
2018-07-14T00:25:51.569Z,1010.09
2018-07-14T00:26:31.953Z,1010.1
2018-07-14T00:27:12.400Z,1010.09
2018-07-14T00:27:52.789Z,1010.11
2018-07-14T00:28:33.169Z,1010.14
2018-07-14T00:29:13.575Z,1010.13
2018-07-14T00:29:53.983Z,1010.13
2018-07-14T00:30:34.353Z,1010.16
2018-07-14T00:32:26.823Z,1010.13
2018-07-14T00:33:07.549Z,1010.18
2018-07-14T00:33:48.040Z,1010.19
2018-07-14T00:34:28.347Z,1010.19
2018-07-14T00:35:08.748Z,1010.21
2018-07-14T00:35:49.157Z,1010.19
2018-07-14T00:36:29.552Z,1010.21
2018-07-14T00:37:09.951Z,1010.2
2018-07-14T00:37:50.356Z,1010.18
2018-07-14T00:39:43.238Z,1010.22
2018-07-14T00:40:23.630Z,1010.19
2018-07-14T00:41:03.976Z,1010.23
2018-07-14T00:41:44.375Z,1010.19
2018-07-14T00:42:24.793Z,1010.18
2018-07-14T00:43:05.165Z,1010.18
2018-07-14T00:43:45.591Z,1010.18
2018-07-14T00:44:25.972Z,1010.22
2018-07-14T00:45:06.358Z,1010.26
2018-07-14T00:45:46.756Z,1010.24
2018-07-14T00:46:27.193Z,1010.25
2018-07-14T00:47:07.612Z,1010.25
2018-07-14T00:47:48.098Z,1010.29
2018-07-14T00:48:28.415Z,1010.22
2018-07-14T00:49:08.833Z,1010.25
2018-07-14T00:49:49.245Z,1010.25
2018-07-14T00:50:29.696Z,1010.23
2018-07-14T00:51:10.072Z,1010.21
2018-07-14T00:51:50.493Z,1010.23
2018-07-14T00:52:30.919Z,1010.21
2018-07-14T00:53:11.268Z,1010.2
2018-07-14T00:53:51.719Z,1010.2
2018-07-14T00:54:32.140Z,1010.21
2018-07-14T00:55:12.523Z,1010.21
2018-07-14T00:55:52.973Z,1010.16
2018-07-14T00:56:33.365Z,1010.2
2018-07-14T00:57:13.795Z,1010.16
2018-07-14T00:57:54.209Z,1010.19
2018-07-14T00:58:34.602Z,1010.2
2018-07-14T00:59:15.039Z,1010.17
2018-07-14T00:59:55.481Z,1010.15
2018-07-14T01:00:35.912Z,1010.17
2018-07-14T01:01:16.363Z,1010.18
2018-07-14T01:01:56.795Z,1010.17
2018-07-14T01:02:37.167Z,1010.16
2018-07-14T01:03:17.604Z,1010.2
2018-07-14T01:03:57.985Z,1010.21
2018-07-14T01:04:38.399Z,1010.21
2018-07-14T01:05:18.855Z,1010.23
2018-07-14T01:05:59.289Z,1010.2
2018-07-14T01:06:39.649Z,1010.21
2018-07-14T01:07:20.102Z,1010.23
2018-07-14T01:08:00.483Z,1010.27
2018-07-14T01:08:40.884Z,1010.24
2018-07-14T01:09:21.292Z,1010.28
2018-07-14T01:10:01.726Z,1010.24
2018-07-14T01:10:42.105Z,1010.25
2018-07-14T01:11:22.488Z,1010.29
2018-07-14T01:12:02.942Z,1010.3
2018-07-14T01:12:43.311Z,1010.32
2018-07-14T01:13:23.711Z,1010.32
2018-07-14T01:14:04.183Z,1010.33
2018-07-14T01:14:44.569Z,1010.32
2018-07-14T01:15:24.967Z,1010.35
2018-07-14T01:16:05.397Z,1010.34
2018-07-14T01:16:45.786Z,1010.35
2018-07-14T01:17:26.216Z,1010.35
2018-07-14T01:18:06.690Z,1010.36
2018-07-14T01:18:47.018Z,1010.38
2018-07-14T01:19:27.437Z,1010.38
2018-07-14T01:20:07.837Z,1010.41
2018-07-14T01:20:48.246Z,1010.38
2018-07-14T01:21:28.635Z,1010.38
2018-07-14T01:22:09.059Z,1010.38
2018-07-14T01:22:49.521Z,1010.38
2018-07-14T01:23:29.881Z,1010.38
2018-07-14T01:24:10.290Z,1010.37
2018-07-14T01:24:50.688Z,1010.33
2018-07-14T01:25:31.100Z,1010.34
2018-07-14T01:26:11.534Z,1010.33
2018-07-14T01:26:51.958Z,1010.32
2018-07-14T01:27:32.353Z,1010.32
2018-07-14T01:28:12.803Z,1010.34
2018-07-14T01:28:53.147Z,1010.36
2018-07-14T01:29:33.560Z,1010.32
2018-07-14T01:30:13.985Z,1010.34
2018-07-14T01:32:07.324Z,1010.34
2018-07-14T01:32:47.769Z,1010.34
2018-07-14T01:33:28.259Z,1010.35
2018-07-14T01:34:08.603Z,1010.37
2018-07-14T01:34:48.992Z,1010.4
2018-07-14T01:35:29.398Z,1010.38
2018-07-14T01:36:09.802Z,1010.36
2018-07-14T01:36:50.169Z,1010.37
2018-07-14T01:37:30.566Z,1010.39
2018-07-14T01:38:10.975Z,1010.32
2018-07-14T01:38:51.360Z,1010.32
2018-07-14T01:39:31.752Z,1010.3
2018-07-14T01:40:12.190Z,1010.33
2018-07-14T01:40:52.615Z,1010.31
2018-07-14T01:41:33.039Z,1010.33
2018-07-14T01:42:13.459Z,1010.34
2018-07-14T01:42:53.880Z,1010.34
2018-07-14T01:43:34.371Z,1010.31
2018-07-14T01:44:14.671Z,1010.31
2018-07-14T01:44:55.081Z,1010.31
2018-07-14T01:45:35.481Z,1010.29
2018-07-14T01:46:15.927Z,1010.3
2018-07-14T01:46:56.276Z,1010.3
2018-07-14T01:47:36.739Z,1010.31
2018-07-14T01:48:17.137Z,1010.29
2018-07-14T01:48:57.543Z,1010.27
2018-07-14T01:49:37.948Z,1010.26
2018-07-14T01:50:18.367Z,1010.25
2018-07-14T01:50:58.792Z,1010.26
2018-07-14T01:51:39.216Z,1010.26
2018-07-14T01:52:19.630Z,1010.27
2018-07-14T01:53:00.031Z,1010.26
2018-07-14T01:53:40.467Z,1010.29
2018-07-14T01:54:20.849Z,1010.26
2018-07-14T01:55:01.252Z,1010.26
2018-07-14T01:55:41.715Z,1010.3
2018-07-14T01:56:22.173Z,1010.28
2018-07-14T01:57:02.581Z,1010.29
2018-07-14T01:57:42.943Z,1010.29
2018-07-14T01:58:23.374Z,1010.25
2018-07-14T01:59:03.771Z,1010.24
2018-07-14T01:59:44.154Z,1010.27
2018-07-14T02:00:24.580Z,1010.28
2018-07-14T02:01:04.961Z,1010.31
2018-07-14T02:01:45.358Z,1010.27
2018-07-14T02:02:25.753Z,1010.25
2018-07-14T02:03:06.172Z,1010.3
2018-07-14T02:03:46.580Z,1010.28
2018-07-14T02:04:27.005Z,1010.27
2018-07-14T02:05:07.408Z,1010.27
2018-07-14T02:05:47.802Z,1010.28
2018-07-14T02:06:28.202Z,1010.27
2018-07-14T02:07:08.610Z,1010.27
2018-07-14T02:07:49.022Z,1010.27
2018-07-14T02:08:29.443Z,1010.32
2018-07-14T02:09:09.860Z,1010.32
2018-07-14T02:09:50.243Z,1010.33
2018-07-14T02:10:30.651Z,1010.32
2018-07-14T02:11:11.037Z,1010.33
2018-07-14T02:11:51.465Z,1010.35
2018-07-14T02:12:31.857Z,1010.31
2018-07-14T02:14:49.473Z,1010.29
2018-07-14T02:15:29.847Z,1010.33
2018-07-14T02:16:10.248Z,1010.3
2018-07-14T02:16:50.609Z,1010.33
2018-07-14T02:17:30.991Z,1010.32
2018-07-14T02:18:12.323Z,1010.35
2018-07-14T02:18:52.721Z,1010.34
2018-07-14T02:19:33.134Z,1010.3
2018-07-14T02:20:13.560Z,1010.3
2018-07-14T02:20:53.969Z,1010.35
2018-07-14T02:21:34.362Z,1010.34
2018-07-14T02:22:14.780Z,1010.33
2018-07-14T02:22:55.190Z,1010.39
2018-07-14T02:23:35.587Z,1010.37
2018-07-14T02:24:16.008Z,1010.36
2018-07-14T02:24:56.382Z,1010.41
2018-07-14T02:25:36.816Z,1010.41
2018-07-14T02:26:17.173Z,1010.42
2018-07-14T02:26:57.575Z,1010.42
2018-07-14T02:27:38.034Z,1010.38
2018-07-14T02:28:18.414Z,1010.41
2018-07-14T02:28:58.803Z,1010.38
2018-07-14T02:29:39.231Z,1010.39
2018-07-14T02:30:19.618Z,1010.37
2018-07-14T02:31:00.013Z,1010.39
2018-07-14T02:31:40.448Z,1010.38
2018-07-14T02:32:20.859Z,1010.4
2018-07-14T02:33:01.267Z,1010.39
2018-07-14T02:33:41.664Z,1010.39
2018-07-14T02:34:22.044Z,1010.38
2018-07-14T02:35:02.462Z,1010.35
2018-07-14T02:35:42.872Z,1010.38
2018-07-14T02:36:23.272Z,1010.38
2018-07-14T02:37:03.653Z,1010.37
2018-07-14T02:37:44.057Z,1010.39
2018-07-14T02:38:24.510Z,1010.36
2018-07-14T02:39:04.892Z,1010.37
2018-07-14T02:39:45.315Z,1010.37
2018-07-14T02:40:25.763Z,1010.36
2018-07-14T02:41:06.088Z,1010.34
2018-07-14T02:41:46.473Z,1010.33
2018-07-14T02:42:26.853Z,1010.34
2018-07-14T02:43:07.310Z,1010.37
2018-07-14T02:43:47.771Z,1010.38
2018-07-14T02:44:28.137Z,1010.38
2018-07-14T02:45:08.506Z,1010.39
2018-07-14T02:45:48.940Z,1010.38
2018-07-14T02:46:29.295Z,1010.41
2018-07-14T02:47:09.694Z,1010.42
2018-07-14T02:47:50.104Z,1010.42
2018-07-14T02:48:30.502Z,1010.4
2018-07-14T02:49:10.910Z,1010.42
2018-07-14T02:49:51.329Z,1010.44
2018-07-14T02:50:31.702Z,1010.45
2018-07-14T02:51:12.124Z,1010.44
2018-07-14T02:51:52.525Z,1010.45
2018-07-14T02:52:32.942Z,1010.42
2018-07-14T02:53:13.364Z,1010.46
2018-07-14T02:53:53.764Z,1010.44
2018-07-14T02:54:34.153Z,1010.45
2018-07-14T02:55:14.544Z,1010.4
2018-07-14T02:55:55.015Z,1010.45
2018-07-14T02:56:35.362Z,1010.45
2018-07-14T02:57:15.762Z,1010.5
2018-07-14T02:57:56.179Z,1010.49
2018-07-14T02:58:36.565Z,1010.49
2018-07-14T02:59:16.990Z,1010.48
2018-07-14T02:59:57.394Z,1010.48
2018-07-14T03:00:37.831Z,1010.47
2018-07-14T03:01:18.163Z,1010.49
2018-07-14T03:01:58.556Z,1010.49
2018-07-14T03:02:38.976Z,1010.46
2018-07-14T03:06:37.541Z,1010.46
2018-07-14T03:07:18.649Z,1010.38
2018-07-14T03:09:31.917Z,1010.41
2018-07-14T03:10:12.609Z,1010.43
2018-07-14T03:10:52.998Z,1010.47
2018-07-14T03:11:33.427Z,1010.42
2018-07-14T03:12:13.833Z,1010.44
2018-07-14T03:12:54.244Z,1010.43
2018-07-14T03:13:34.625Z,1010.43
2018-07-14T03:14:15.025Z,1010.45
2018-07-14T03:14:55.416Z,1010.42
2018-07-14T03:15:35.827Z,1010.4
2018-07-14T03:16:16.232Z,1010.39
2018-07-14T03:16:56.620Z,1010.42
2018-07-14T03:17:37.009Z,1010.42
2018-07-14T03:18:17.429Z,1010.4
2018-07-14T03:18:57.827Z,1010.42
2018-07-14T03:19:38.245Z,1010.4
2018-07-14T03:20:18.650Z,1010.35
2018-07-14T03:20:59.047Z,1010.37
2018-07-14T03:21:39.457Z,1010.37
2018-07-14T03:22:19.828Z,1010.36
2018-07-14T03:24:16.317Z,1010.39
2018-07-14T03:24:54.936Z,1010.38
2018-07-14T03:25:35.357Z,1010.36
2018-07-14T03:26:15.792Z,1010.38
2018-07-14T03:26:56.204Z,1010.41
2018-07-14T03:27:36.567Z,1010.4
2018-07-14T03:28:16.957Z,1010.36
2018-07-14T03:28:57.348Z,1010.34
2018-07-14T03:29:37.739Z,1010.35
2018-07-14T03:30:18.106Z,1010.36
2018-07-14T03:30:58.492Z,1010.38
2018-07-14T03:31:38.907Z,1010.36
2018-07-14T03:32:19.294Z,1010.34
2018-07-14T03:32:59.706Z,1010.33
2018-07-14T03:33:40.120Z,1010.35
2018-07-14T03:34:20.532Z,1010.36
2018-07-14T03:35:00.967Z,1010.33
2018-07-14T03:35:41.348Z,1010.32
2018-07-14T03:36:21.764Z,1010.31
2018-07-14T03:37:02.195Z,1010.35
2018-07-14T03:37:42.586Z,1010.31
2018-07-14T03:38:22.990Z,1010.35
2018-07-14T03:39:03.423Z,1010.35
2018-07-14T03:39:43.856Z,1010.39
2018-07-14T03:40:24.256Z,1010.37
2018-07-14T03:41:04.665Z,1010.36
2018-07-14T03:41:45.082Z,1010.4
2018-07-14T03:42:25.472Z,1010.36
2018-07-14T03:43:05.903Z,1010.41
2018-07-14T03:43:46.298Z,1010.4
2018-07-14T03:44:26.723Z,1010.43
2018-07-14T03:45:07.113Z,1010.41
2018-07-14T03:45:47.532Z,1010.4
2018-07-14T03:46:27.948Z,1010.38
2018-07-14T03:47:08.358Z,1010.39
2018-07-14T03:47:48.768Z,1010.39
2018-07-14T03:48:29.160Z,1010.4
2018-07-14T03:49:09.575Z,1010.37
2018-07-14T03:49:49.981Z,1010.36
2018-07-14T03:50:30.363Z,1010.37
2018-07-14T03:51:10.796Z,1010.38
2018-07-14T03:51:51.179Z,1010.4
2018-07-14T03:52:31.576Z,1010.4
2018-07-14T03:53:12.029Z,1010.38
2018-07-14T03:53:52.390Z,1010.36
2018-07-14T03:54:32.827Z,1010.38
2018-07-14T03:55:13.232Z,1010.35
2018-07-14T03:55:53.642Z,1010.36
2018-07-14T03:57:46.204Z,1010.35
2018-07-14T03:58:26.487Z,1010.36
2018-07-14T03:59:06.889Z,1010.39
2018-07-14T03:59:47.275Z,1010.38
2018-07-14T04:00:27.672Z,1010.36
2018-07-14T04:01:08.097Z,1010.41
2018-07-14T04:01:48.504Z,1010.38
2018-07-14T04:02:28.887Z,1010.38
2018-07-14T04:03:09.273Z,1010.4
2018-07-14T04:42:54.895Z,1010.55
2018-07-14T04:43:35.256Z,1010.53
2018-07-14T04:44:15.636Z,1010.56
2018-07-14T04:44:56.034Z,1010.54
2018-07-14T04:45:36.442Z,1010.52
2018-07-14T04:46:16.828Z,1010.54
2018-07-14T04:46:57.230Z,1010.52
2018-07-14T04:47:37.615Z,1010.58
2018-07-14T04:48:18.045Z,1010.55
2018-07-14T04:48:58.469Z,1010.55
2018-07-14T04:49:38.958Z,1010.57
2018-07-14T04:50:19.387Z,1010.57
2018-07-14T04:50:59.719Z,1010.58
2018-07-14T04:51:40.114Z,1010.59
2018-07-14T04:52:20.580Z,1010.64
2018-07-14T04:53:00.914Z,1010.62
2018-07-14T04:53:41.312Z,1010.66
2018-07-14T04:54:21.732Z,1010.65
2018-07-14T04:55:02.211Z,1010.67
2018-07-14T04:55:42.617Z,1010.65
2018-07-14T04:56:23.034Z,1010.68
2018-07-14T04:57:03.458Z,1010.68
2018-07-14T04:57:44.203Z,1010.69
2018-07-14T04:58:24.455Z,1010.74
2018-07-14T04:59:05.325Z,1010.71
2018-07-14T04:59:45.310Z,1010.71
2018-07-14T05:00:25.692Z,1010.73
2018-07-14T05:01:06.085Z,1010.73
2018-07-14T05:01:46.517Z,1010.73
2018-07-14T05:02:26.933Z,1010.76
2018-07-14T05:03:07.283Z,1010.73
2018-07-14T05:03:47.979Z,1010.73
2018-07-14T05:04:28.156Z,1010.74
2018-07-14T05:05:08.609Z,1010.77
2018-07-14T05:05:49.043Z,1010.78
2018-07-14T05:06:29.426Z,1010.8
2018-07-14T05:07:09.847Z,1010.77
2018-07-14T05:07:50.315Z,1010.76
2018-07-14T05:08:30.660Z,1010.74
2018-07-14T05:09:11.060Z,1010.77
2018-07-14T05:09:51.462Z,1010.74
2018-07-14T05:10:31.935Z,1010.78
2018-07-14T05:11:12.398Z,1010.77
2018-07-14T05:11:52.800Z,1010.7
2018-07-14T05:12:33.322Z,1010.72
2018-07-14T05:13:13.607Z,1010.78
2018-07-14T05:13:54.046Z,1010.72
2018-07-14T05:14:34.427Z,1010.74
2018-07-14T05:15:14.847Z,1010.74
2018-07-14T05:15:55.269Z,1010.74
2018-07-14T05:18:16.483Z,1010.75
2018-07-14T05:18:56.669Z,1010.78
2018-07-14T05:19:37.122Z,1010.75
2018-07-14T05:21:34.895Z,1010.74
2018-07-14T05:22:15.215Z,1010.72
2018-07-14T05:22:55.607Z,1010.72
2018-07-14T05:23:36.032Z,1010.75
2018-07-14T05:24:16.424Z,1010.75
2018-07-14T05:24:56.849Z,1010.79
2018-07-14T05:25:37.288Z,1010.8
2018-07-14T05:26:18.530Z,1010.77
2018-07-14T05:26:59.164Z,1010.8
2018-07-14T05:27:39.900Z,1010.79
2018-07-14T05:28:20.358Z,1010.79
2018-07-14T05:29:00.749Z,1010.82
2018-07-14T05:29:41.328Z,1010.84
2018-07-14T05:30:27.410Z,1010.85
2018-07-14T05:31:07.829Z,1010.83
2018-07-14T05:31:48.237Z,1010.83
2018-07-14T05:32:28.665Z,1010.84
2018-07-14T05:33:09.057Z,1010.86
2018-07-14T05:33:49.509Z,1010.86
2018-07-14T05:34:29.946Z,1010.89
2018-07-14T05:35:10.364Z,1010.87
2018-07-14T05:35:50.772Z,1010.9
2018-07-14T05:36:31.240Z,1010.9
2018-07-14T05:37:11.634Z,1010.92
2018-07-14T05:37:52.218Z,1010.78
2018-07-14T05:38:32.834Z,1010.83
2018-07-14T05:39:13.322Z,1010.84
2018-07-14T05:39:53.616Z,1010.86
2018-07-14T05:40:34.044Z,1010.85
2018-07-14T05:41:14.513Z,1010.86
2018-07-14T05:41:54.874Z,1010.89
2018-07-14T05:42:35.399Z,1010.92
2018-07-14T05:43:20.447Z,1010.87
2018-07-14T05:43:59.787Z,1010.87
2018-07-14T05:44:40.193Z,1010.89
2018-07-14T05:45:20.577Z,1010.9
2018-07-14T05:46:01.015Z,1010.89
2018-07-14T05:46:41.427Z,1010.88
2018-07-14T05:47:21.863Z,1010.88
2018-07-14T05:48:02.348Z,1010.84
2018-07-14T05:50:14.904Z,1010.87
2018-07-14T05:50:55.187Z,1010.91
2018-07-14T05:51:35.603Z,1010.87
2018-07-14T05:52:16.036Z,1010.89
2018-07-14T05:52:56.409Z,1010.88
2018-07-14T05:53:36.847Z,1010.9
2018-07-14T05:54:17.297Z,1010.88
2018-07-14T05:54:57.617Z,1010.89
2018-07-14T05:55:38.026Z,1010.94
2018-07-14T05:56:18.405Z,1010.89
2018-07-14T05:56:58.826Z,1010.98
2018-07-14T05:57:39.662Z,1010.94
2018-07-14T05:58:20.957Z,1010.94
2018-07-14T05:59:00.388Z,1010.94
2018-07-14T05:59:40.801Z,1010.96
2018-07-14T06:00:21.217Z,1010.94
2018-07-14T06:01:01.639Z,1010.98
2018-07-14T06:01:42.035Z,1010.96
2018-07-14T06:02:22.433Z,1010.99
2018-07-14T06:03:02.897Z,1011.02
2018-07-14T06:03:43.353Z,1011.02
2018-07-14T06:04:23.817Z,1011.04
2018-07-14T06:05:04.270Z,1011
2018-07-14T06:05:44.680Z,1011.04
2018-07-14T06:06:25.121Z,1011.03
2018-07-14T06:07:05.535Z,1011.04
2018-07-14T06:07:45.959Z,1011.07
2018-07-14T06:08:26.350Z,1011.08
2018-07-14T06:09:06.744Z,1011.1
2018-07-14T06:09:47.156Z,1011.12
2018-07-14T06:10:27.581Z,1011.1
2018-07-14T06:11:07.986Z,1011.11
2018-07-14T06:11:48.412Z,1011.16
2018-07-14T06:12:28.815Z,1011.16
2018-07-14T06:13:09.268Z,1011.18
2018-07-14T06:13:49.675Z,1011.15
2018-07-14T06:14:30.085Z,1011.12
2018-07-14T06:15:10.523Z,1011.14
2018-07-14T06:15:50.987Z,1011.17
2018-07-14T06:16:31.351Z,1011.15
2018-07-14T06:17:11.875Z,1011.17
2018-07-14T06:17:52.187Z,1011.17
2018-07-14T06:18:32.694Z,1011.17
2018-07-14T06:19:13.048Z,1011.15
2018-07-14T06:19:53.548Z,1011.16
2018-07-14T06:20:33.900Z,1011.12
2018-07-14T06:21:14.308Z,1011.1
2018-07-14T06:21:54.693Z,1011.12
2018-07-14T06:22:35.102Z,1011.12
2018-07-14T06:23:15.527Z,1011.13
2018-07-14T06:23:55.940Z,1011.12
2018-07-14T06:24:36.407Z,1011.11
2018-07-14T06:25:16.808Z,1011.1
2018-07-14T06:25:57.247Z,1011.08
2018-07-14T06:26:37.647Z,1011.08
2018-07-14T06:27:18.049Z,1011.08
2018-07-14T06:27:58.459Z,1011.12
2018-07-14T06:28:38.858Z,1011.13
2018-07-14T06:29:19.281Z,1011.09
2018-07-14T06:31:11.726Z,1011.12
2018-07-14T06:31:52.048Z,1011.11
2018-07-14T06:32:32.436Z,1011.13
2018-07-14T06:33:12.838Z,1011.16
2018-07-14T06:33:53.306Z,1011.16
2018-07-14T06:34:33.686Z,1011.18
2018-07-14T06:35:14.103Z,1011.19
2018-07-14T06:35:54.873Z,1011.16
2018-07-14T06:36:35.291Z,1011.16
2018-07-14T06:37:15.769Z,1011.13
2018-07-14T06:37:56.190Z,1011.17
2018-07-14T06:38:36.624Z,1011.18
2018-07-14T06:39:17.061Z,1011.19
2018-07-14T06:39:57.434Z,1011.14
2018-07-14T06:40:37.853Z,1011.17
2018-07-14T06:41:18.263Z,1011.15
2018-07-14T06:41:58.623Z,1011.13
2018-07-14T06:42:39.051Z,1011.12
2018-07-14T06:45:07.695Z,1011.16
2018-07-14T06:45:56.842Z,1011.16
2018-07-14T06:46:37.279Z,1011.19
2018-07-14T06:47:17.691Z,1011.2
2018-07-14T06:47:58.123Z,1011.21
2018-07-14T06:48:38.553Z,1011.24
2018-07-14T06:49:19.090Z,1011.21
2018-07-14T06:49:59.418Z,1011.2
2018-07-14T06:50:39.816Z,1011.18
2018-07-14T06:51:20.254Z,1011.21
2018-07-14T06:52:00.680Z,1011.16
2018-07-14T06:52:41.094Z,1011.16
2018-07-14T06:53:21.576Z,1011.16
2018-07-14T06:54:01.947Z,1011.14
2018-07-14T06:54:42.360Z,1011.18
2018-07-14T06:55:22.828Z,1011.14
2018-07-14T06:57:40.450Z,1011.15
2018-07-14T06:58:21.021Z,1011.14
2018-07-14T06:59:01.443Z,1011.15
2018-07-14T07:00:53.919Z,1011.17
2018-07-14T07:01:34.793Z,1011.16
2018-07-14T07:02:15.226Z,1011.16
2018-07-14T07:02:55.590Z,1011.19
2018-07-14T07:03:35.993Z,1011.15
2018-07-14T07:05:48.629Z,1011.2
2018-07-14T07:06:28.921Z,1011.18
2018-07-14T07:07:09.345Z,1011.22
2018-07-14T07:07:49.800Z,1011.21
2018-07-14T07:08:30.178Z,1011.19
2018-07-14T07:09:10.589Z,1011.22
2018-07-14T07:09:51.031Z,1011.2
2018-07-14T07:10:31.433Z,1011.21
2018-07-14T07:11:11.859Z,1011.2
2018-07-14T07:11:52.239Z,1011.2
2018-07-14T07:12:32.664Z,1011.21
2018-07-14T07:13:13.063Z,1011.22
2018-07-14T07:13:53.521Z,1011.22
2018-07-14T07:14:33.889Z,1011.24
2018-07-14T07:15:14.305Z,1011.25
2018-07-14T07:15:54.727Z,1011.21
2018-07-14T07:16:35.758Z,1011.23
2018-07-14T07:17:16.156Z,1011.25
2018-07-14T07:17:56.696Z,1011.21
2018-07-14T07:18:37.913Z,1011.25
2018-07-14T07:19:18.107Z,1011.23
2018-07-14T07:19:58.546Z,1011.22
2018-07-14T07:20:38.970Z,1011.23
2018-07-14T07:21:19.429Z,1011.22
2018-07-14T07:21:59.919Z,1011.2
2018-07-14T07:22:40.961Z,1011.2
2018-07-14T07:23:21.403Z,1011.21
2018-07-14T07:24:01.809Z,1011.2
2018-07-14T07:24:42.210Z,1011.2
2018-07-14T07:25:22.649Z,1011.16
2018-07-14T07:26:03.096Z,1011.18
2018-07-14T07:26:43.513Z,1011.23
2018-07-14T07:27:23.921Z,1011.23
2018-07-14T07:28:04.351Z,1011.28
2018-07-14T07:28:44.784Z,1011.23
2018-07-14T07:29:25.219Z,1011.26
2018-07-14T07:30:05.660Z,1011.24
2018-07-14T07:30:46.055Z,1011.29
2018-07-14T07:31:26.497Z,1011.27
2018-07-14T07:32:06.896Z,1011.28
2018-07-14T07:32:47.319Z,1011.27
2018-07-14T07:33:27.713Z,1011.25
2018-07-14T07:34:08.098Z,1011.27
2018-07-14T07:34:48.566Z,1011.28
2018-07-14T07:35:28.946Z,1011.27
2018-07-14T07:36:09.398Z,1011.28
2018-07-14T07:36:49.802Z,1011.27
2018-07-14T07:37:30.225Z,1011.31
2018-07-14T07:38:10.695Z,1011.3
2018-07-14T07:38:51.100Z,1011.31
2018-07-14T07:39:31.502Z,1011.3
2018-07-14T07:40:11.939Z,1011.29
2018-07-14T07:40:52.321Z,1011.34
2018-07-14T07:41:32.784Z,1011.34
2018-07-14T07:42:13.290Z,1011.33
2018-07-14T07:42:53.683Z,1011.31
2018-07-14T07:43:34.101Z,1011.33
2018-07-14T07:44:14.504Z,1011.38
2018-07-14T07:44:54.923Z,1011.37
2018-07-14T07:45:35.361Z,1011.35
2018-07-14T07:46:15.772Z,1011.38
2018-07-14T07:46:56.233Z,1011.36
2018-07-14T07:47:36.637Z,1011.34
2018-07-14T07:48:17.029Z,1011.32
2018-07-14T07:48:57.452Z,1011.31
2018-07-14T07:49:37.864Z,1011.33
2018-07-14T07:50:18.272Z,1011.33
2018-07-14T07:50:58.687Z,1011.32
2018-07-14T07:51:39.140Z,1011.33
2018-07-14T07:53:54.756Z,1011.31
2018-07-14T07:54:41.775Z,1011.27
2018-07-14T07:55:22.180Z,1011.32
2018-07-14T07:56:02.609Z,1011.28
2018-07-14T07:56:43.003Z,1011.3
2018-07-14T07:57:23.412Z,1011.3
2018-07-14T07:58:03.878Z,1011.29
2018-07-14T07:58:44.296Z,1011.24
2018-07-14T07:59:24.732Z,1011.26
2018-07-14T08:00:05.112Z,1011.27
2018-07-14T08:00:45.529Z,1011.26
2018-07-14T08:01:25.944Z,1011.27
2018-07-14T08:02:06.338Z,1011.27
2018-07-14T08:02:46.805Z,1011.24
2018-07-14T08:03:27.252Z,1011.22
2018-07-14T08:04:07.625Z,1011.24
2018-07-14T08:04:48.052Z,1011.23
2018-07-14T08:05:28.465Z,1011.22
2018-07-14T08:06:08.989Z,1011.25
2018-07-14T08:06:49.368Z,1011.24
2018-07-14T08:07:29.769Z,1011.21
2018-07-14T08:08:10.192Z,1011.21
2018-07-14T08:08:50.631Z,1011.2
2018-07-14T08:09:31.019Z,1011.24
2018-07-14T08:10:11.661Z,1011.22
2018-07-14T08:10:52.128Z,1011.24
2018-07-14T08:11:32.534Z,1011.22
2018-07-14T08:12:12.966Z,1011.25
2018-07-14T08:12:53.406Z,1011.25
2018-07-14T08:13:33.845Z,1011.25
2018-07-14T08:14:14.330Z,1011.25
2018-07-14T08:14:54.733Z,1011.17
2018-07-14T08:15:35.173Z,1011.16
2018-07-14T08:16:15.663Z,1011.17
2018-07-14T08:16:56.058Z,1011.17
2018-07-14T08:17:36.479Z,1011.19
2018-07-14T08:18:16.907Z,1011.21
2018-07-14T08:18:57.361Z,1011.19
2018-07-14T08:19:37.797Z,1011.16
2018-07-14T08:20:18.191Z,1011.21
2018-07-14T08:20:58.595Z,1011.17
2018-07-14T08:21:39.183Z,1011.2
2018-07-14T08:22:19.606Z,1011.16
2018-07-14T08:22:59.982Z,1011.19
2018-07-14T08:23:40.627Z,1011.17
2018-07-14T08:24:21.070Z,1011.17
2018-07-14T08:26:23.080Z,1011.13
2018-07-14T08:27:03.038Z,1011.17
2018-07-14T08:27:43.433Z,1011.17
2018-07-14T08:28:23.934Z,1011.17
2018-07-14T08:29:04.237Z,1011.14
2018-07-14T08:29:44.656Z,1011.14
2018-07-14T08:30:25.083Z,1011.18
2018-07-14T08:31:05.520Z,1011.18
2018-07-14T08:33:27.130Z,1011.17
2018-07-14T08:34:08.648Z,1011.17
2018-07-14T08:34:49.047Z,1011.19
2018-07-14T08:35:29.449Z,1011.18
2018-07-14T08:36:09.864Z,1011.19
2018-07-14T08:36:50.346Z,1011.15
2018-07-14T08:37:31.008Z,1011.16
2018-07-14T08:38:11.589Z,1011.18
2018-07-14T08:38:51.919Z,1011.17
2018-07-14T08:39:32.372Z,1011.18
2018-07-14T08:40:12.754Z,1011.19
2018-07-14T08:40:53.172Z,1011.19
2018-07-14T08:41:33.565Z,1011.19
2018-07-14T08:42:14.027Z,1011.18
2018-07-14T08:42:54.454Z,1011.24
2018-07-14T08:43:34.960Z,1011.23
2018-07-14T08:44:15.307Z,1011.19
2018-07-14T08:44:55.719Z,1011.23
2018-07-14T08:45:36.213Z,1011.2
2018-07-14T08:46:16.630Z,1011.22
2018-07-14T08:46:57.049Z,1011.16
2018-07-14T08:47:37.439Z,1011.09
2018-07-14T08:48:18.173Z,1011.14
2018-07-14T08:48:58.618Z,1011.18
2018-07-14T08:49:39.055Z,1011.2
2018-07-14T08:50:19.494Z,1011.14
2018-07-14T08:52:47.620Z,1011.09
2018-07-14T08:53:27.806Z,1011.1
2018-07-14T08:54:08.230Z,1011.09
2018-07-14T08:54:48.606Z,1011.1
2018-07-14T08:55:29.038Z,1011.07
2018-07-14T08:56:09.474Z,1011.05
2018-07-14T08:56:49.909Z,1011.08
2018-07-14T08:57:30.383Z,1011.1
2018-07-14T08:58:10.908Z,1011.07
2018-07-14T08:58:51.248Z,1011.09
2018-07-14T08:59:31.701Z,1011.07
2018-07-14T09:00:12.133Z,1011.09
2018-07-14T09:00:52.551Z,1011.1
2018-07-14T09:01:33.028Z,1011.08
2018-07-14T09:02:13.461Z,1011.07
2018-07-14T09:02:53.879Z,1011.13
2018-07-14T09:03:34.331Z,1011.1
2018-07-14T09:04:14.761Z,1011.11
2018-07-14T09:04:55.148Z,1011.1
2018-07-14T09:05:35.570Z,1011.09
2018-07-14T09:06:15.980Z,1011.07
2018-07-14T09:06:56.366Z,1011.08
2018-07-14T09:07:36.800Z,1011.08
2018-07-14T09:08:17.226Z,1011.09
2018-07-14T09:08:57.683Z,1011.08
2018-07-14T09:09:38.093Z,1011.08
2018-07-14T09:10:18.498Z,1011.09
2018-07-14T09:10:58.892Z,1011.04
2018-07-14T09:11:39.318Z,1011.04
2018-07-14T09:12:19.732Z,1011
2018-07-14T09:13:00.198Z,1011.03
2018-07-14T09:13:40.599Z,1010.98
2018-07-14T09:14:21.038Z,1010.93
2018-07-14T09:15:01.449Z,1010.89
2018-07-14T09:15:41.883Z,1010.95
2018-07-14T09:16:22.274Z,1010.91
2018-07-14T09:17:02.678Z,1010.95
2018-07-14T09:17:43.114Z,1010.96
2018-07-14T09:18:23.571Z,1010.92
2018-07-14T09:19:03.950Z,1010.92
2018-07-14T09:19:44.389Z,1010.96
2018-07-14T09:20:24.829Z,1010.95
2018-07-14T09:21:05.275Z,1010.97